createdAt,value
2023-03-01T00:01:37.375Z,8.82
2023-03-01T00:04:05.470Z,8.23
2023-03-01T00:06:53.737Z,8.77
2023-03-01T00:09:21.893Z,9.73
2023-03-01T00:11:51.061Z,9.55
2023-03-01T00:14:19.433Z,9.75
2023-03-01T00:16:48.253Z,9.60
2023-03-01T00:19:19.038Z,10.25
2023-03-01T00:21:48.136Z,10.18
2023-03-01T00:24:17.750Z,10.98
2023-03-01T00:26:47.460Z,10.68
2023-03-01T00:29:15.621Z,11.07
2023-03-01T00:31:43.725Z,10.60
2023-03-01T00:34:11.926Z,10.02
2023-03-01T00:36:40.532Z,10.27
2023-03-01T00:39:13.606Z,9.98
2023-03-01T00:41:44.055Z,9.85
2023-03-01T00:44:12.657Z,10.65
2023-03-01T00:46:41.250Z,9.63
2023-03-01T00:49:10.048Z,10.05
2023-03-01T00:51:38.173Z,9.35
2023-03-01T00:54:06.482Z,9.45
2023-03-01T00:56:34.847Z,9.45
2023-03-01T00:59:04.576Z,9.10
2023-03-01T01:01:33.417Z,9.50
2023-03-01T01:04:04.679Z,9.77
2023-03-01T01:06:35.161Z,9.05
2023-03-01T01:09:04.794Z,9.70
2023-03-01T01:11:33.748Z,9.77
2023-03-01T01:14:01.904Z,10.32
2023-03-01T01:16:32.779Z,9.63
2023-03-01T01:19:01.522Z,10.40
2023-03-01T01:21:30.131Z,10.23
2023-03-01T01:23:59.099Z,10.07
2023-03-01T01:26:29.813Z,10.40
2023-03-01T01:28:58.203Z,10.25
2023-03-01T01:31:27.353Z,10.15
2023-03-01T01:33:57.486Z,9.38
2023-03-01T01:36:25.941Z,10.60
2023-03-01T01:38:54.185Z,10.57
2023-03-01T01:41:23.300Z,10.38
2023-03-01T01:44:14.026Z,11.02
2023-03-01T01:46:44.072Z,10.10
2023-03-01T01:49:26.622Z,9.98
2023-03-01T01:52:02.060Z,10.52
2023-03-01T01:54:33.462Z,10.43
2023-03-01T01:57:05.495Z,10.75
2023-03-01T01:59:35.634Z,10.48
2023-03-01T02:02:06.232Z,10.15
2023-03-01T02:04:35.946Z,10.70
2023-03-01T02:07:08.793Z,10.30
2023-03-01T02:09:37.668Z,9.73
2023-03-01T02:12:07.869Z,10.27
2023-03-01T02:14:36.371Z,9.73
2023-03-01T02:17:05.329Z,10.13
2023-03-01T02:19:51.536Z,9.63
2023-03-01T02:22:24.885Z,9.82
2023-03-01T02:25:07.541Z,10.07
2023-03-01T02:27:43.285Z,10.23
2023-03-01T02:30:14.271Z,9.30
2023-03-01T02:32:43.641Z,10.32
2023-03-01T02:35:14.606Z,9.95
2023-03-01T02:37:44.651Z,10.55
2023-03-01T02:40:17.760Z,16.17
2023-03-01T02:42:51.832Z,25.50
2023-03-01T02:47:49.468Z,14.55
2023-03-01T02:50:37.931Z,11.65
2023-03-01T02:53:12.221Z,11.00
2023-03-01T02:55:40.651Z,11.43
2023-03-01T02:58:09.355Z,10.55
2023-03-01T03:00:47.837Z,10.73
2023-03-01T03:03:18.627Z,10.18
2023-03-01T03:05:46.945Z,10.15
2023-03-01T03:08:17.352Z,11.05
2023-03-01T03:10:45.485Z,11.30
2023-03-01T03:13:16.017Z,10.77
2023-03-01T03:15:46.695Z,11.18
2023-03-01T03:18:16.954Z,10.38
2023-03-01T03:20:46.588Z,10.70
2023-03-01T03:23:15.131Z,10.30
2023-03-01T03:25:43.282Z,10.18
2023-03-01T03:28:11.510Z,10.43
2023-03-01T03:30:42.196Z,9.32
2023-03-01T03:33:13.662Z,9.43
2023-03-01T03:35:44.582Z,10.25
2023-03-01T03:38:17.768Z,9.50
2023-03-01T03:40:48.959Z,11.80
2023-03-01T03:43:18.649Z,17.17
2023-03-01T03:45:47.336Z,15.63
2023-03-01T03:48:18.270Z,13.15
2023-03-01T03:50:50.762Z,11.90
2023-03-01T03:53:19.541Z,11.15
2023-03-01T03:55:50.159Z,10.32
2023-03-01T03:58:20.906Z,10.52
2023-03-01T04:00:51.146Z,10.50
2023-03-01T04:03:22.228Z,10.85
2023-03-01T04:05:51.498Z,9.75
2023-03-01T04:08:21.596Z,9.85
2023-03-01T04:10:52.282Z,10.25
2023-03-01T04:13:22.166Z,10.25
2023-03-01T04:15:51.590Z,9.95
2023-03-01T04:18:23.697Z,10.40
2023-03-01T04:20:53.114Z,9.70
2023-03-01T04:23:22.397Z,10.25
2023-03-01T04:25:55.009Z,10.15
2023-03-01T04:28:25.463Z,9.95
2023-03-01T04:30:54.127Z,10.82
2023-03-01T04:33:24.288Z,10.05
2023-03-01T04:35:52.467Z,10.02
2023-03-01T04:38:22.257Z,11.48
2023-03-01T04:40:50.842Z,12.85
2023-03-01T04:43:19.106Z,11.70
2023-03-01T04:45:47.378Z,10.80
2023-03-01T04:48:15.819Z,10.95
2023-03-01T04:50:45.263Z,10.93
2023-03-01T04:53:13.633Z,11.07
2023-03-01T04:55:41.918Z,10.80
2023-03-01T04:58:10.102Z,10.45
2023-03-01T05:00:38.227Z,10.60
2023-03-01T05:03:06.607Z,10.70
2023-03-01T05:05:37.150Z,10.95
2023-03-01T05:08:09.136Z,10.88
2023-03-01T05:10:39.713Z,11.07
2023-03-01T05:13:08.336Z,11.25
2023-03-01T05:15:37.541Z,11.18
2023-03-01T05:18:08.141Z,11.13
2023-03-01T05:20:37.438Z,10.45
2023-03-01T05:23:07.812Z,10.98
2023-03-01T05:25:41.009Z,10.45
2023-03-01T05:28:14.070Z,11.07
2023-03-01T05:30:42.921Z,10.93
2023-03-01T05:33:14.725Z,10.88
2023-03-01T05:35:43.646Z,11.63
2023-03-01T05:38:14.425Z,12.20
2023-03-01T05:40:43.437Z,12.23
2023-03-01T05:43:12.458Z,11.20
2023-03-01T05:45:41.772Z,11.52
2023-03-01T05:48:12.200Z,11.75
2023-03-01T05:50:43.221Z,10.93
2023-03-01T05:53:14.971Z,11.02
2023-03-01T05:55:43.960Z,11.35
2023-03-01T05:58:15.110Z,10.95
2023-03-01T06:00:44.199Z,11.73
2023-03-01T06:03:13.560Z,10.88
2023-03-01T06:05:42.524Z,11.43
2023-03-01T06:08:14.494Z,11.52
2023-03-01T06:10:43.441Z,11.18
2023-03-01T06:13:11.561Z,10.65
2023-03-01T06:15:39.893Z,10.65
2023-03-01T06:18:08.203Z,11.60
2023-03-01T06:20:36.524Z,12.30
2023-03-01T06:23:05.119Z,12.98
2023-03-01T06:25:34.818Z,14.00
2023-03-01T06:28:02.902Z,13.45
2023-03-01T06:30:31.111Z,11.60
2023-03-01T06:33:02.493Z,13.65
2023-03-01T06:35:32.097Z,13.13
2023-03-01T06:38:01.171Z,11.90
2023-03-01T06:40:30.115Z,12.18
2023-03-01T06:43:00.248Z,11.73
2023-03-01T06:45:28.622Z,12.00
2023-03-01T06:48:04.725Z,11.57
2023-03-01T06:50:33.253Z,11.98
2023-03-01T06:53:01.687Z,12.25
2023-03-01T06:55:30.534Z,11.90
2023-03-01T06:58:01.015Z,11.77
2023-03-01T07:00:30.264Z,12.68
2023-03-01T07:03:03.035Z,13.00
2023-03-01T07:05:31.781Z,12.38
2023-03-01T07:07:59.918Z,12.40
2023-03-01T07:10:28.425Z,11.43
2023-03-01T07:13:00.889Z,11.32
2023-03-01T07:15:31.133Z,11.82
2023-03-01T07:17:59.452Z,11.73
2023-03-01T07:20:27.701Z,10.95
2023-03-01T07:22:57.597Z,10.82
2023-03-01T07:25:25.922Z,10.85
2023-03-01T07:27:54.938Z,11.05
2023-03-01T07:30:27.035Z,10.95
2023-03-01T07:32:55.974Z,11.13
2023-03-01T07:35:24.895Z,11.63
2023-03-01T07:37:53.528Z,11.15
2023-03-01T07:40:22.061Z,10.77
2023-03-01T07:42:50.193Z,10.23
2023-03-01T07:45:18.352Z,10.50
2023-03-01T07:47:47.933Z,11.80
2023-03-01T07:50:16.455Z,11.40
2023-03-01T07:52:46.919Z,11.57
2023-03-01T07:55:15.648Z,11.50
2023-03-01T07:57:43.844Z,11.73
2023-03-01T08:00:14.317Z,11.32
2023-03-01T08:02:43.127Z,11.88
2023-03-01T08:05:12.741Z,10.88
2023-03-01T08:07:41.301Z,10.77
2023-03-01T08:10:10.523Z,11.57
2023-03-01T08:12:42.447Z,10.82
2023-03-01T08:15:12.297Z,11.98
2023-03-01T08:17:40.500Z,10.60
2023-03-01T08:20:13.669Z,10.65
2023-03-01T08:22:43.314Z,10.00
2023-03-01T08:25:11.720Z,10.25
2023-03-01T08:27:40.116Z,10.95
2023-03-01T08:30:10.102Z,10.20
2023-03-01T08:32:39.952Z,10.13
2023-03-01T08:35:09.080Z,10.10
2023-03-01T08:37:37.237Z,8.82
2023-03-01T08:40:11.115Z,9.18
2023-03-01T08:42:39.357Z,9.10
2023-03-01T08:45:08.392Z,8.10
2023-03-01T08:47:36.962Z,7.88
2023-03-01T08:50:06.141Z,8.15
2023-03-01T08:52:35.020Z,8.80
2023-03-01T08:55:03.667Z,6.95
2023-03-01T09:00:36.578Z,6.97
2023-03-01T09:03:05.386Z,6.18
2023-03-01T09:05:33.959Z,6.50
2023-03-01T09:08:02.592Z,6.20
2023-03-01T09:10:30.684Z,7.22
2023-03-01T09:12:58.786Z,7.00
2023-03-01T09:15:27.791Z,6.60
2023-03-01T09:17:57.288Z,5.93
2023-03-01T09:20:25.524Z,6.60
2023-03-01T09:22:54.017Z,5.60
2023-03-01T09:25:22.046Z,6.60
2023-03-01T09:27:50.214Z,6.25
2023-03-01T09:30:19.072Z,5.28
2023-03-01T09:32:47.434Z,5.50
2023-03-01T09:35:17.060Z,5.40
2023-03-01T09:37:46.286Z,4.82
2023-03-01T09:40:18.199Z,4.10
2023-03-01T09:42:55.886Z,4.10
2023-03-01T09:45:30.875Z,3.95
2023-03-01T09:48:00.007Z,3.38
2023-03-01T09:50:33.808Z,3.17
2023-03-01T09:53:04.647Z,2.33
2023-03-01T09:55:39.333Z,2.63
2023-03-01T09:58:38.190Z,2.42
2023-03-01T10:01:25.823Z,2.20
2023-03-01T10:04:06.831Z,2.28
2023-03-01T10:06:36.464Z,1.92
2023-03-01T10:09:10.553Z,1.83
2023-03-01T10:11:46.058Z,1.67
2023-03-01T10:14:24.456Z,2.25
2023-03-01T10:16:59.883Z,2.10
2023-03-01T10:19:34.520Z,1.80
2023-03-01T10:22:11.579Z,2.38
2023-03-01T10:24:40.062Z,2.72
2023-03-01T10:27:14.859Z,2.42
2023-03-01T10:29:51.138Z,2.83
2023-03-01T10:32:20.497Z,2.55
2023-03-01T10:34:49.258Z,2.58
2023-03-01T10:37:22.665Z,2.00
2023-03-01T10:42:31.077Z,4.00
2023-03-01T10:44:59.467Z,2.72
2023-03-01T10:47:29.343Z,3.20
2023-03-01T10:50:02.934Z,3.08
2023-03-01T10:52:38.009Z,3.20
2023-03-01T10:55:26.855Z,3.15
2023-03-01T10:58:09.997Z,3.63
2023-03-01T11:00:49.686Z,3.47
2023-03-01T11:03:23.084Z,2.85
2023-03-01T11:06:03.565Z,3.78
2023-03-01T11:08:36.037Z,3.75
2023-03-01T11:11:15.364Z,3.55
2023-03-01T11:13:53.362Z,3.38
2023-03-01T11:16:31.907Z,2.90
2023-03-01T11:19:16.949Z,3.92
2023-03-01T11:21:55.756Z,3.22
2023-03-01T11:24:32.392Z,4.22
2023-03-01T11:27:04.715Z,4.70
2023-03-01T11:29:47.689Z,3.50
2023-03-01T11:32:17.756Z,4.10
2023-03-01T11:34:50.249Z,2.22
2023-03-01T11:37:26.622Z,3.38
2023-03-01T11:40:05.724Z,3.67
2023-03-01T11:42:46.430Z,3.90
2023-03-01T11:45:15.289Z,3.13
2023-03-01T11:48:06.025Z,5.05
2023-03-01T11:50:41.837Z,4.07
2023-03-01T11:53:46.496Z,4.38
2023-03-01T11:56:27.957Z,3.92
2023-03-01T11:59:26.860Z,3.05
2023-03-01T12:02:21.932Z,3.47
2023-03-01T12:05:19.960Z,3.63
2023-03-01T12:07:55.499Z,3.47
2023-03-01T12:10:28.488Z,3.97
2023-03-01T12:13:39.611Z,3.30
2023-03-01T12:16:36.274Z,3.65
2023-03-01T12:19:41.712Z,2.83
2023-03-01T12:22:22.612Z,3.38
2023-03-01T12:25:20.827Z,3.60
2023-03-01T12:28:12.812Z,3.35
2023-03-01T12:30:53.386Z,2.75
2023-03-01T12:33:27.685Z,3.70
2023-03-01T12:36:18.756Z,3.25
2023-03-01T12:38:52.532Z,4.45
2023-03-01T12:41:38.046Z,2.80
2023-03-01T12:44:26.511Z,2.50
2023-03-01T12:47:12.708Z,3.85
2023-03-01T12:49:45.207Z,3.20
2023-03-01T12:52:18.910Z,2.83
2023-03-01T12:54:48.314Z,3.65
2023-03-01T12:57:23.342Z,3.75
2023-03-01T13:00:09.388Z,2.10
2023-03-01T13:02:47.846Z,2.92
2023-03-01T13:05:31.482Z,2.88
2023-03-01T13:08:07.562Z,3.25
2023-03-01T13:10:41.805Z,3.30
2023-03-01T13:13:22.003Z,3.58
2023-03-01T13:15:52.155Z,2.90
2023-03-01T13:18:33.241Z,3.63
2023-03-01T13:21:06.621Z,4.25
2023-03-01T13:23:37.909Z,4.03
2023-03-01T13:26:15.950Z,3.05
2023-03-01T13:28:58.159Z,3.90
2023-03-01T13:32:02.745Z,3.10
2023-03-01T13:34:49.804Z,3.97
2023-03-01T13:37:33.808Z,4.85
2023-03-01T13:40:06.548Z,3.58
2023-03-01T13:42:41.995Z,4.43
2023-03-01T13:45:22.773Z,3.65
2023-03-01T13:47:59.600Z,4.72
2023-03-01T13:50:33.684Z,4.18
2023-03-01T13:55:39.637Z,4.50
2023-03-01T13:58:20.864Z,4.38
2023-03-01T14:00:49.183Z,3.95
2023-03-01T14:03:19.174Z,4.40
2023-03-01T14:06:13.004Z,4.82
2023-03-01T14:08:42.462Z,4.70
2023-03-01T14:11:37.500Z,6.43
2023-03-01T14:14:56.760Z,5.15
2023-03-01T14:17:47.103Z,5.47
2023-03-01T14:20:20.378Z,4.97
2023-03-01T14:22:54.287Z,6.35
2023-03-01T14:25:26.806Z,5.32
2023-03-01T14:28:06.300Z,6.38
2023-03-01T14:30:38.494Z,6.72
2023-03-01T14:33:08.974Z,7.40
2023-03-01T14:35:38.491Z,6.95
2023-03-01T14:38:07.872Z,6.03
2023-03-01T14:40:38.275Z,6.68
2023-03-01T14:43:13.077Z,5.90
2023-03-01T14:45:41.568Z,5.78
2023-03-01T14:48:09.977Z,6.75
2023-03-01T14:50:43.406Z,7.70
2023-03-01T14:53:19.949Z,9.05
2023-03-01T14:55:52.609Z,7.10
2023-03-01T14:58:23.913Z,8.02
2023-03-01T15:00:54.760Z,7.18
2023-03-01T15:03:29.782Z,6.22
2023-03-01T15:05:58.493Z,6.90
2023-03-01T15:08:34.105Z,6.07
2023-03-01T15:11:08.625Z,6.65
2023-03-01T15:13:38.070Z,7.35
2023-03-01T15:16:09.987Z,6.75
2023-03-01T15:18:39.148Z,7.00
2023-03-01T15:21:12.247Z,6.60
2023-03-01T15:23:42.324Z,7.35
2023-03-01T15:26:25.227Z,8.50
2023-03-01T15:28:55.857Z,8.27
2023-03-01T15:31:26.048Z,10.52
2023-03-01T15:33:54.739Z,11.20
2023-03-01T15:36:38.329Z,10.88
2023-03-01T15:39:28.272Z,10.65
2023-03-01T15:41:56.596Z,10.18
2023-03-01T15:44:34.990Z,10.88
2023-03-01T15:47:26.712Z,10.52
2023-03-01T15:49:56.318Z,12.13
2023-03-01T15:52:30.099Z,10.52
2023-03-01T15:55:05.663Z,9.68
2023-03-01T15:57:33.841Z,9.98
2023-03-01T16:00:01.981Z,10.25
2023-03-01T16:02:33.098Z,10.95
2023-03-01T16:05:01.231Z,11.05
2023-03-01T16:07:29.274Z,9.95
2023-03-01T16:09:57.806Z,9.98
2023-03-01T16:12:27.188Z,9.85
2023-03-01T16:14:55.410Z,9.60
2023-03-01T16:17:23.645Z,10.93
2023-03-01T16:19:51.768Z,10.90
2023-03-01T16:22:26.100Z,11.50
2023-03-01T16:24:54.466Z,11.57
2023-03-01T16:27:22.532Z,10.75
2023-03-01T16:29:53.526Z,10.52
2023-03-01T16:32:21.707Z,10.07
2023-03-01T16:34:50.377Z,10.68
2023-03-01T16:37:20.422Z,10.50
2023-03-01T16:39:49.810Z,9.65
2023-03-01T16:42:18.706Z,10.50
2023-03-01T16:44:46.946Z,11.65
2023-03-01T16:47:16.328Z,11.52
2023-03-01T16:49:44.432Z,12.38
2023-03-01T16:52:12.906Z,11.00
2023-03-01T16:54:41.554Z,12.88
2023-03-01T16:57:09.859Z,12.10
2023-03-01T16:59:38.455Z,12.52
2023-03-01T17:02:09.070Z,13.30
2023-03-01T17:04:39.202Z,13.88
2023-03-01T17:07:07.334Z,14.68
2023-03-01T17:09:37.633Z,13.88
2023-03-01T17:12:06.487Z,13.60
2023-03-01T17:14:35.863Z,13.18
2023-03-01T17:17:04.553Z,14.93
2023-03-01T17:19:33.070Z,15.00
2023-03-01T17:22:02.476Z,15.95
2023-03-01T17:24:34.250Z,15.77
2023-03-01T17:27:02.364Z,14.80
2023-03-01T17:29:30.475Z,15.13
2023-03-01T17:31:59.670Z,15.68
2023-03-01T17:34:28.348Z,15.05
2023-03-01T17:36:56.577Z,15.45
2023-03-01T17:39:32.268Z,15.27
2023-03-01T17:42:00.871Z,15.30
2023-03-01T17:44:28.906Z,14.82
2023-03-01T17:46:57.342Z,15.50
2023-03-01T17:49:25.453Z,15.88
2023-03-01T17:51:53.454Z,16.15
2023-03-01T17:54:21.946Z,16.88
2023-03-01T17:56:51.582Z,17.15
2023-03-01T17:59:19.677Z,17.67
2023-03-01T18:01:48.461Z,19.63
2023-03-01T18:04:18.371Z,18.77
2023-03-01T18:06:46.713Z,20.50
2023-03-01T18:09:15.352Z,20.10
2023-03-01T18:11:46.189Z,22.98
2023-03-01T18:14:16.755Z,21.73
2023-03-01T18:16:44.833Z,22.33
2023-03-01T18:19:13.597Z,21.02
2023-03-01T18:21:41.999Z,21.80
2023-03-01T18:24:10.170Z,23.20
2023-03-01T18:26:40.182Z,23.17
2023-03-01T18:29:08.513Z,22.83
2023-03-01T18:31:37.897Z,23.35
2023-03-01T18:34:06.130Z,24.45
2023-03-01T18:36:36.952Z,23.65
2023-03-01T18:39:07.894Z,22.80
2023-03-01T18:41:36.957Z,22.05
2023-03-01T18:44:06.914Z,23.35
2023-03-01T18:46:37.915Z,21.20
2023-03-01T18:49:08.106Z,22.00
2023-03-01T18:51:36.178Z,21.50
2023-03-01T18:54:05.278Z,22.92
2023-03-01T18:56:35.389Z,22.70
2023-03-01T18:59:04.044Z,22.42
2023-03-01T19:01:36.671Z,22.38
2023-03-01T19:04:09.214Z,21.85
2023-03-01T19:06:38.177Z,22.58
2023-03-01T19:09:07.659Z,22.40
2023-03-01T19:11:36.326Z,21.73
2023-03-01T19:14:05.644Z,21.52
2023-03-01T19:16:36.012Z,22.65
2023-03-01T19:19:08.613Z,24.52
2023-03-01T19:21:36.854Z,23.25
2023-03-01T19:24:05.414Z,22.80
2023-03-01T19:26:34.654Z,22.35
2023-03-01T19:29:03.753Z,23.17
2023-03-01T19:31:32.368Z,22.90
2023-03-01T19:34:11.934Z,23.83
2023-03-01T19:36:43.058Z,22.65
2023-03-01T19:39:14.151Z,25.58
2023-03-01T19:41:42.843Z,24.75
2023-03-01T19:44:11.506Z,24.38
2023-03-01T19:46:40.105Z,25.85
2023-03-01T19:49:08.242Z,24.25
2023-03-01T19:51:38.882Z,25.85
2023-03-01T19:54:09.902Z,25.50
2023-03-01T19:56:38.388Z,24.83
2023-03-01T19:59:06.849Z,24.48
2023-03-01T20:01:37.617Z,25.10
2023-03-01T20:04:06.468Z,26.42
2023-03-01T20:06:34.855Z,25.33
2023-03-01T20:09:12.329Z,24.50
2023-03-01T20:11:48.883Z,24.70
2023-03-01T20:14:17.154Z,24.75
2023-03-01T20:16:45.251Z,23.42
2023-03-01T20:19:13.315Z,23.90
2023-03-01T20:21:41.426Z,24.70
2023-03-01T20:24:09.785Z,23.15
2023-03-01T20:26:38.206Z,23.85
2023-03-01T20:29:09.047Z,23.90
2023-03-01T20:31:37.577Z,24.27
2023-03-01T20:34:05.637Z,21.50
2023-03-01T20:36:35.094Z,20.38
2023-03-01T20:39:03.256Z,18.23
2023-03-01T20:41:31.503Z,19.25
2023-03-01T20:44:00.480Z,19.30
2023-03-01T20:46:32.499Z,18.95
2023-03-01T20:49:01.431Z,18.23
2023-03-01T20:51:29.695Z,17.48
2023-03-01T20:53:58.080Z,18.33
2023-03-01T20:56:27.541Z,15.65
2023-03-01T20:59:05.373Z,15.00
2023-03-01T21:01:35.278Z,15.98
2023-03-01T21:04:03.413Z,15.68
2023-03-01T21:06:32.227Z,15.25
2023-03-01T21:09:00.641Z,14.43
2023-03-01T21:11:28.708Z,14.70
2023-03-01T21:13:56.948Z,14.88
2023-03-01T21:16:26.071Z,15.02
2023-03-01T21:18:55.673Z,15.13
2023-03-01T21:21:24.919Z,15.82
2023-03-01T21:23:53.169Z,16.33
2023-03-01T21:26:23.044Z,14.50
2023-03-01T21:28:54.717Z,15.80
2023-03-01T21:31:24.658Z,15.25
2023-03-01T21:33:56.113Z,16.23
2023-03-01T21:36:25.825Z,15.48
2023-03-01T21:38:54.957Z,16.48
2023-03-01T21:41:24.955Z,15.55
2023-03-01T21:43:54.973Z,14.75
2023-03-01T21:46:25.732Z,15.63
2023-03-01T21:48:56.297Z,16.77
2023-03-01T21:51:26.054Z,16.17
2023-03-01T21:53:56.171Z,15.73
2023-03-01T21:56:26.116Z,15.27
2023-03-01T21:58:55.316Z,15.68
2023-03-01T22:01:26.050Z,15.20
2023-03-01T22:03:56.037Z,15.40
2023-03-01T22:06:28.155Z,14.73
2023-03-01T22:08:59.280Z,14.82
2023-03-01T22:11:28.468Z,15.60
2023-03-01T22:13:57.655Z,16.73
2023-03-01T22:16:27.938Z,15.95
2023-03-01T22:18:58.693Z,14.80
2023-03-01T22:21:27.594Z,16.08
2023-03-01T22:23:57.195Z,14.88
2023-03-01T22:26:29.395Z,15.52
2023-03-01T22:29:00.909Z,15.52
2023-03-01T22:31:30.101Z,16.67
2023-03-01T22:34:02.100Z,25.08
2023-03-01T22:36:30.703Z,18.80
2023-03-01T22:39:01.938Z,16.05
2023-03-01T22:41:31.929Z,14.77
2023-03-01T22:44:00.185Z,14.95
2023-03-01T22:46:29.404Z,14.05
2023-03-01T22:48:57.923Z,15.48
2023-03-01T22:51:29.024Z,14.70
2023-03-01T22:53:57.378Z,14.93
2023-03-01T22:56:28.823Z,15.50
2023-03-01T22:58:58.155Z,15.27
2023-03-01T23:01:27.572Z,15.90
2023-03-01T23:03:56.476Z,15.32
2023-03-01T23:06:25.245Z,17.00
2023-03-01T23:08:56.576Z,16.13
2023-03-01T23:11:26.343Z,15.90
2023-03-01T23:13:55.353Z,16.08
2023-03-01T23:16:26.455Z,15.82
2023-03-01T23:18:56.013Z,15.52
2023-03-01T23:21:24.314Z,15.77
2023-03-01T23:23:55.064Z,16.73
2023-03-01T23:26:23.493Z,17.13
2023-03-01T23:28:51.903Z,16.27
2023-03-01T23:31:20.404Z,16.92
2023-03-01T23:33:49.323Z,16.95
2023-03-01T23:36:19.654Z,16.95
2023-03-01T23:38:49.025Z,17.13
2023-03-01T23:41:21.117Z,17.58
2023-03-01T23:43:50.830Z,17.70
2023-03-01T23:46:21.350Z,18.40
2023-03-01T23:48:50.288Z,18.88
2023-03-01T23:51:19.462Z,16.63
2023-03-01T23:53:54.814Z,18.25
2023-03-01T23:56:26.751Z,18.13
2023-03-01T23:58:55.970Z,17.67
